Alexandria, Egypt

2:25 PM EET on September 01, 2015 (GMT +0200)
Shatby | | Change Station
CLOSE
Current Station
Personal Weather Station
Location: Alexandria Governorate, ALEXANDRIA GOVERNORATE
Elevation: 59 ft
Nearby Weather Stations

Elev 59 ft 31.21 °N, 29.92 °E | Updated 16 seconds ago

Clear
Clear
84.4 °F
Feels Like 87 °F
N
3.4
Wind Variable Wind from NNW
Gusts 4.9 mph

Today
High -- | Low -- °F
--% Chance of Precip.
Yesterday
High -- | Low -- °F
Precip. -- in
5:35 AM 6:24 PM
Waning Gibbous, 89% visible
Pressure 29.92 in
Visibility -9999.0 miles
Clouds
Heat Index 87 °F
Dew Point 67 °F
Humidity 56%
Rainfall 0.00 in
Snow Depth Not available.
UV 3.0 out of 12
Pollen Not available.
Air Quality Not available.
Flu Activity Not available.
METAR HEAX 011200Z 31009KT CAVOK 32/19 Q1013 NOSIG
Pressure 29.92 in
Visibility -9999.0 miles
Clouds
Heat Index 87 °F
Dew Point 67 °F
Humidity 56%
Rainfall 0.00 in
Snow Depth Not available.
UV 3.0 out of 12
Pollen Not available.
Air Quality Not available.
Flu Activity Not available.
METAR HEAX 011200Z 31009KT CAVOK 32/19 Q1013 NOSIG

10-Day Weather Forecast

×

Almanac

Astronomy

Sep. 01, 2015 Rise Set
Actual Time
Civil Twilight
Nautical Twilight
Astronomical Twilight
Moon
Length of Visible Light
Length of Day
Tomorrow will be .
, % of the Moon is Illuminated

Today's Extremes

Country Highs Country Lows

Community

WunderPhotos

Upload Photos

1,851,508 photos uploaded!

WunderBlogs® & News

Nearby

Air Quality

  Air Quality AQ Index Pollutant
Not available.

Snow Depth

Station Depth Elevation

Earthquake Activity

City Distance Mag. Time & Date
Minimum magnitude displayed is 2.5.

Coastal Water Temperatures

Place Temperature

Stations

Nearby Weather Stations

Station Location Temp. Windchill Dew Point Humidity Wind Precip. Elev Updated Type